Terminal Aerodrome Forecast
Issued by NWS

Current Version | Previous Version | Graphics & Text | Print | Product List | Glossary On
Versions: 1 2 3 4 5 6 7 8 9 10 11 12 13 14 15 16 17 18 19 20 21 22 23 24 25 26 27
653
FTUS41 KILN 260520
TAFLUK
TAF
KLUK 260520Z 2606/2706 00000KT 5SM BR SKC
      TEMPO 2606/2610 1 1/2SM BR
     FM261100 18006KT P6SM VCSH SCT050 BKN120
     FM261300 26012G18KT P6SM -SHRA SCT028 BKN035
     FM261700 27010G18KT P6SM BKN028
     FM262000 27010KT P6SM SKC
     FM270000 24004KT P6SM SKC=

USA.gov is the U.S. government's official web portal to all federal, state and local government web resources and services.